Time;durP1;ratioP1;P1;durP2;ratioP2;P2;SDS_P1;SDS_P2;PMS_P1;PMS_P2;Temp;Humidity;BMP_temperature;BMP_pressure;BME280_temperature;BME280_humidity;BME280_pressure;Samples;Min_cycle;Max_cycle;Signal;HPM_P1;HPM_P2
2022/07/29 00:00:09;;;;;;;12.38;10.18;;;;;;;20.24;41.03;100475.94;4906189;28;97626;-82
2022/07/29 00:02:35;;;;;;;11.40;10.30;;;;;;;20.14;41.36;100459.78;4913269;28;101391;-81
2022/07/29 00:05:01;;;;;;;13.48;10.55;;;;;;;20.35;41.15;100484.03;4915619;28;96884;-80
2022/07/29 00:07:27;;;;;;;11.55;10.15;;;;;;;20.21;41.14;100468.16;4912423;28;97878;-81
2022/07/29 00:09:53;;;;;;;10.48;9.55;;;;;;;20.21;41.62;100471.69;4907431;28;97505;-80
2022/07/29 00:12:20;;;;;;;10.85;9.95;;;;;;;20.14;41.49;100467.78;4899521;28;97968;-81
2022/07/29 00:14:45;;;;;;;11.73;10.48;;;;;;;20.13;41.63;100472.25;4898391;28;97041;-81
2022/07/29 00:17:11;;;;;;;12.90;10.43;;;;;;;20.17;41.58;100478.22;4899765;28;96784;-82
2022/07/29 00:19:36;;;;;;;10.82;9.93;;;;;;;20.11;41.91;100482.16;4914294;28;98114;-82
2022/07/29 00:22:02;;;;;;;11.10;10.02;;;;;;;20.08;41.94;100479.72;4916543;28;97564;-80
2022/07/29 00:24:27;;;;;;;10.85;9.77;;;;;;;20.05;41.96;100477.28;4912310;28;97317;-81
2022/07/29 00:26:53;;;;;;;12.35;10.55;;;;;;;20.03;42.11;100473.00;4922029;28;96959;-81
2022/07/29 00:29:18;;;;;;;11.35;10.32;;;;;;;19.89;42.24;100476.63;4914332;28;97951;-81
2022/07/29 00:31:44;;;;;;;11.75;10.52;;;;;;;19.85;42.70;100483.16;4898416;28;101687;-80
2022/07/29 00:35:43;;;;;;;11.50;10.40;;;;;;;19.78;42.48;100482.75;4898559;28;96732;-81
2022/07/29 00:36:55;;;;;;;10.55;9.57;;;;;;;19.65;42.98;100466.75;4915589;28;96976;-81
2022/07/29 00:39:21;;;;;;;11.27;10.02;;;;;;;19.75;42.82;100480.28;4898603;28;100192;-80
2022/07/29 00:41:47;;;;;;;11.80;10.70;;;;;;;19.64;42.96;100445.53;4919325;28;98067;-80
2022/07/29 00:44:12;;;;;;;11.40;10.25;;;;;;;19.52;43.19;100446.38;4918672;28;97228;-80
2022/07/29 00:46:37;;;;;;;11.23;10.13;;;;;;;19.58;43.33;100473.44;4901463;28;97249;-80
2022/07/29 00:49:03;;;;;;;11.10;10.00;;;;;;;19.56;43.29;100466.50;4897624;28;105173;-80
2022/07/29 00:51:29;;;;;;;10.40;9.60;;;;;;;19.61;43.38;100472.38;4908402;28;101384;-81
2022/07/29 00:53:54;;;;;;;10.98;9.88;;;;;;;19.48;43.59;100459.03;4897202;28;97070;-80
2022/07/29 00:56:20;;;;;;;11.88;10.05;;;;;;;19.34;43.55;100435.19;4890850;28;96964;-80
2022/07/29 00:58:46;;;;;;;10.90;9.90;;;;;;;19.49;43.77;100462.56;4882392;28;101350;-81
2022/07/29 01:01:12;;;;;;;11.18;10.10;;;;;;;19.52;43.83;100473.00;4897511;28;101150;-81
2022/07/29 01:03:38;;;;;;;12.10;10.38;;;;;;;19.37;43.88;100458.94;4882778;28;97930;-80
2022/07/29 01:06:04;;;;;;;11.57;10.50;;;;;;;19.39;44.10;100471.19;4897819;28;96993;-80
2022/07/29 01:08:31;;;;;;;11.63;10.20;;;;;;;19.37;44.10;100466.91;4913912;28;97439;-80
2022/07/29 01:10:56;;;;;;;11.63;10.63;;;;;;;19.29;44.21;100453.31;4913420;28;97499;-80
2022/07/29 01:13:22;;;;;;;13.55;10.50;;;;;;;19.32;44.24;100471.72;4895526;28;96930;-80
2022/07/29 01:15:54;;;;;;;13.20;10.27;;;;;;;19.24;44.32;100464.25;4879239;28;96924;-80
2022/07/29 01:18:24;;;;;;;11.63;10.73;;;;;;;19.13;44.67;100454.31;4913931;28;97613;-80
2022/07/29 01:21:14;;;;;;;11.95;10.85;;;;;;;19.28;44.59;100473.72;4898340;28;97951;-81
2022/07/29 01:23:58;;;;;;;11.10;10.30;;;;;;;19.28;44.56;100467.53;4897650;28;100080;-80
2022/07/29 01:26:35;;;;;;;11.18;10.18;;;;;;;19.19;44.76;100461.03;4896955;28;96785;-80
2022/07/29 01:29:13;;;;;;;10.50;9.50;;;;;;;19.09;44.85;100454.66;4897801;28;98587;-81
2022/07/29 01:31:51;;;;;;;11.32;10.18;;;;;;;19.16;44.99;100458.59;4896397;28;101917;-81
2022/07/29 01:34:48;;;;;;;11.68;10.63;;;;;;;19.13;45.09;100462.31;4880515;28;97585;-81
2022/07/29 01:37:17;;;;;;;11.88;10.98;;;;;;;19.08;45.18;100453.81;4892910;28;97672;-81
2022/07/29 01:39:46;;;;;;;11.98;10.60;;;;;;;18.94;45.07;100437.91;4912157;28;97992;-81
2022/07/29 01:42:25;;;;;;;11.13;10.07;;;;;;;19.14;44.94;100466.69;4909437;28;101038;-81
2022/07/29 01:44:57;;;;;;;13.32;10.70;;;;;;;18.99;45.25;100454.41;4881274;28;97087;-81
2022/07/29 01:47:26;;;;;;;11.93;10.70;;;;;;;18.98;45.55;100456.22;4914233;28;97000;-80
2022/07/29 01:49:54;;;;;;;11.80;10.60;;;;;;;18.93;45.43;100447.69;4913696;28;97709;-80
2022/07/29 01:52:24;;;;;;;11.00;10.00;;;;;;;18.79;45.64;100434.44;4897561;28;100983;-80
2022/07/29 01:54:56;;;;;;;11.07;9.98;;;;;;;18.87;46.08;100452.56;4905263;28;97308;-80
2022/07/29 01:57:28;;;;;;;11.27;10.27;;;;;;;18.86;45.85;100446.41;4888612;28;97270;-80
2022/07/29 01:59:54;;;;;;;11.30;9.80;;;;;;;18.92;45.66;100456.63;4893860;28;97686;-80
2022/07/29 02:02:20;;;;;;;12.55;11.43;;;;;;;18.82;46.05;100442.25;4879496;28;101199;-81
2022/07/29 02:04:48;;;;;;;11.48;10.63;;;;;;;18.72;46.19;100433.97;4896034;28;97241;-81
2022/07/29 02:07:17;;;;;;;13.77;11.18;;;;;;;18.71;46.31;100450.03;4897404;28;96899;-80
2022/07/29 02:09:43;;;;;;;12.95;10.32;;;;;;;18.45;46.28;100399.44;4881212;28;101575;-81
2022/07/29 02:12:09;;;;;;;12.35;10.50;;;;;;;18.69;46.72;100438.66;4897048;28;97729;-80
2022/07/29 02:14:40;;;;;;;12.15;10.82;;;;;;;18.47;46.30;100402.84;4897036;28;97275;-80
2022/07/29 02:17:05;;;;;;;11.95;10.80;;;;;;;18.67;46.42;100440.53;4902211;28;96873;-80
2022/07/29 02:19:33;;;;;;;11.93;10.93;;;;;;;18.60;46.65;100433.94;4912958;28;97515;-80
2022/07/29 02:22:00;;;;;;;11.07;9.85;;;;;;;18.57;46.54;100431.50;4897459;28;98034;-80
2022/07/29 02:24:26;;;;;;;11.75;10.63;;;;;;;18.56;46.80;100433.28;4912153;28;97054;-81
2022/07/29 02:26:53;;;;;;;11.20;10.23;;;;;;;18.49;46.76;100432.81;4897360;28;96983;-80
2022/07/29 02:29:22;;;;;;;11.68;10.50;;;;;;;18.52;47.08;100437.09;4896374;28;101881;-80
2022/07/29 02:31:48;;;;;;;11.07;10.15;;;;;;;18.43;47.26;100433.22;4913029;28;97444;-80
2022/07/29 02:34:14;;;;;;;11.52;10.32;;;;;;;18.40;47.31;100432.59;4894626;28;97690;-80
2022/07/29 02:36:41;;;;;;;10.48;9.63;;;;;;;18.37;47.49;100436.28;4897355;28;97236;-80
2022/07/29 02:39:07;;;;;;;11.20;10.10;;;;;;;18.39;47.11;100436.19;4904648;28;101668;-81
2022/07/29 02:41:57;;;;;;;12.95;11.60;;;;;;;18.31;47.46;100436.69;4909293;28;98498;-80
2022/07/29 02:44:24;;;;;;;12.45;10.40;;;;;;;18.13;47.87;100422.78;4896150;28;97016;-80
2022/07/29 02:47:17;;;;;;;11.23;10.32;;;;;;;18.23;47.78;100438.97;4893730;28;97064;-81
2022/07/29 02:50:02;;;;;;;12.95;10.23;;;;;;;18.15;47.82;100442.13;4895301;28;101527;-81
2022/07/29 02:52:35;;;;;;;12.50;10.40;;;;;;;18.14;47.94;100439.56;4901141;28;101922;-80
2022/07/29 02:55:14;;;;;;;10.80;9.77;;;;;;;18.02;48.17;100414.63;4900047;28;97560;-81
2022/07/29 02:57:54;;;;;;;11.77;10.77;;;;;;;18.13;48.43;100433.41;4903818;28;97737;-81
2022/07/29 03:00:21;;;;;;;13.15;11.85;;;;;;;18.15;48.04;100430.63;4898344;28;97586;-81
2022/07/29 03:02:50;;;;;;;12.27;10.50;;;;;;;18.14;48.06;100436.91;4916162;28;97422;-81
2022/07/29 03:05:19;;;;;;;11.85;10.68;;;;;;;18.12;48.25;100444.13;4903858;28;97523;-80
2022/07/29 03:07:47;;;;;;;10.98;10.05;;;;;;;18.09;48.30;100445.16;4884332;28;97244;-81
2022/07/29 03:10:13;;;;;;;11.82;10.35;;;;;;;18.09;48.26;100448.69;4912012;28;98214;-80
2022/07/29 03:12:39;;;;;;;11.90;10.60;;;;;;;18.13;48.45;100448.50;4919921;28;98080;-81
2022/07/29 03:15:05;;;;;;;10.93;9.93;;;;;;;17.94;48.71;100422.22;4881414;28;100107;-80
2022/07/29 03:17:31;;;;;;;10.68;9.88;;;;;;;18.08;48.40;100443.47;4901659;28;97125;-81
2022/07/29 03:19:57;;;;;;;13.48;10.30;;;;;;;18.08;48.60;100446.13;4899481;28;101409;-81
2022/07/29 03:22:23;;;;;;;11.13;10.05;;;;;;;18.05;48.87;100447.16;4889180;28;98005;-81
2022/07/29 03:24:49;;;;;;;10.88;10.05;;;;;;;18.07;48.77;100447.94;4899339;28;96721;-81
2022/07/29 03:27:14;;;;;;;11.30;10.20;;;;;;;18.01;48.96;100447.47;4896174;28;97180;-81
2022/07/29 03:29:40;;;;;;;13.75;10.70;;;;;;;17.93;48.85;100425.84;4916780;28;97863;-80
2022/07/29 03:32:06;;;;;;;13.00;10.35;;;;;;;17.97;48.99;100440.63;4894486;28;100930;-82
2022/07/29 03:34:31;;;;;;;12.98;10.57;;;;;;;17.71;49.20;100397.94;4900517;28;97065;-81
2022/07/29 03:36:57;;;;;;;13.27;10.45;;;;;;;18.11;48.90;100448.56;4900347;28;97050;-81
2022/07/29 03:39:24;;;;;;;11.70;10.57;;;;;;;17.91;49.34;100436.56;4912340;28;98959;-80
2022/07/29 03:41:53;;;;;;;11.93;10.73;;;;;;;18.03;48.91;100456.16;4899232;28;100380;-81
2022/07/29 03:44:21;;;;;;;11.43;10.32;;;;;;;18.05;48.94;100456.94;4895849;28;97994;-80
2022/07/29 03:46:49;;;;;;;11.13;10.23;;;;;;;18.03;49.43;100454.38;4900005;28;97050;-80
2022/07/29 03:49:15;;;;;;;13.60;10.90;;;;;;;18.08;49.30;100460.25;4910514;28;102529;-80
2022/07/29 03:51:40;;;;;;;10.85;9.95;;;;;;;18.07;49.04;100458.56;4898422;28;101185;-80
2022/07/29 03:54:06;;;;;;;11.60;10.32;;;;;;;18.10;49.05;100468.97;4918804;28;97021;-81
2022/07/29 03:56:34;;;;;;;12.77;11.55;;;;;;;17.95;49.24;100442.50;4879381;28;96974;-80
2022/07/29 03:59:01;;;;;;;12.50;9.82;;;;;;;18.06;49.25;100466.59;4899836;28;100662;-81
2022/07/29 04:01:27;;;;;;;11.50;10.30;;;;;;;18.04;49.57;100466.72;4897008;28;98044;-80
2022/07/29 04:03:53;;;;;;;11.18;10.07;;;;;;;18.03;49.47;100453.50;4898788;28;96972;-81
2022/07/29 04:06:19;;;;;;;13.57;10.02;;;;;;;18.03;49.61;100459.69;4914518;28;96973;-80
2022/07/29 04:08:44;;;;;;;12.15;10.95;;;;;;;18.11;49.46;100472.47;4883116;28;101585;-81
2022/07/29 04:11:09;;;;;;;14.90;11.05;;;;;;;18.08;49.36;100462.91;4898275;28;101631;-80
2022/07/29 04:13:35;;;;;;;13.00;10.45;;;;;;;18.13;48.77;100453.81;4884151;28;96763;-80
2022/07/29 04:16:00;;;;;;;11.77;10.80;;;;;;;18.01;49.00;100434.19;4908150;28;96921;-81
2022/07/29 04:18:26;;;;;;;15.02;9.85;;;;;;;18.17;49.22;100455.31;4914750;28;97993;-80
2022/07/29 04:20:51;;;;;;;14.20;10.70;;;;;;;18.18;49.56;100449.91;4914660;28;102801;-80
2022/07/29 04:23:17;;;;;;;11.45;10.52;;;;;;;18.36;48.70;100457.66;4901507;28;97134;-81
2022/07/29 04:25:43;;;;;;;14.35;10.52;;;;;;;18.45;48.99;100457.91;4903991;28;97190;-80
2022/07/29 04:28:09;;;;;;;12.48;10.77;;;;;;;18.54;48.69;100452.00;4898452;28;98202;-81
2022/07/29 04:30:35;;;;;;;12.02;10.80;;;;;;;18.57;48.63;100448.28;4898262;28;97482;-80
2022/07/29 04:33:02;;;;;;;11.52;10.50;;;;;;;18.55;48.35;100435.06;4902424;28;97285;-81
2022/07/29 04:35:28;;;;;;;12.80;11.30;;;;;;;18.81;47.94;100453.81;4881943;28;97285;-81
2022/07/29 04:37:54;;;;;;;11.98;10.85;;;;;;;18.83;47.83;100448.41;4898363;28;101800;-80
2022/07/29 04:40:20;;;;;;;11.70;10.60;;;;;;;19.11;47.62;100448.28;4898169;28;101194;-81
2022/07/29 04:42:46;;;;;;;18.58;11.88;;;;;;;19.29;47.45;100446.16;4882942;28;97002;-81
2022/07/29 04:45:11;;;;;;;11.98;10.98;;;;;;;19.48;46.81;100444.88;4896249;28;97168;-80
2022/07/29 04:47:37;;;;;;;12.30;11.20;;;;;;;19.66;46.71;100446.28;4876624;28;101754;-80
2022/07/29 04:50:03;;;;;;;13.05;11.63;;;;;;;19.84;46.14;100446.84;4913500;28;97203;-81
2022/07/29 04:52:28;;;;;;;12.40;11.20;;;;;;;19.96;45.89;100453.94;4897082;28;97154;-80
2022/07/29 04:54:54;;;;;;;12.30;11.20;;;;;;;19.92;45.68;100448.94;4896939;28;97315;-81
2022/07/29 04:57:19;;;;;;;12.35;11.13;;;;;;;20.01;45.30;100457.16;4883073;28;101568;-81
2022/07/29 04:59:45;;;;;;;12.57;11.40;;;;;;;20.10;45.46;100456.50;4888395;28;101325;-81
2022/07/29 05:02:10;;;;;;;12.30;11.38;;;;;;;20.21;45.25;100453.03;4880078;28;97441;-80
2022/07/29 05:04:36;;;;;;;12.63;11.38;;;;;;;19.91;45.39;100437.44;4893556;28;97628;-80
2022/07/29 05:07:01;;;;;;;11.73;10.52;;;;;;;20.06;45.52;100451.47;4897908;28;101143;-81
2022/07/29 05:09:26;;;;;;;11.40;10.40;;;;;;;20.08;45.72;100458.41;4913741;28;98243;-80
2022/07/29 05:11:52;;;;;;;11.18;10.32;;;;;;;20.28;45.63;100454.31;4895970;28;97100;-80
2022/07/29 05:14:17;;;;;;;12.23;11.18;;;;;;;20.40;45.37;100463.22;4914262;28;97169;-80
2022/07/29 05:16:43;;;;;;;12.02;10.93;;;;;;;20.47;45.48;100466.28;4897905;28;101314;-81
2022/07/29 05:19:09;;;;;;;12.18;11.07;;;;;;;20.45;45.09;100471.75;4898427;28;101700;-81
2022/07/29 05:21:34;;;;;;;10.90;10.20;;;;;;;20.20;45.32;100459.31;4895115;28;96832;-80
2022/07/29 05:24:00;;;;;;;11.65;10.73;;;;;;;20.05;45.99;100452.44;4893393;28;100312;-81
2022/07/29 05:26:25;;;;;;;11.75;10.80;;;;;;;19.97;46.23;100460.97;4893555;28;100968;-80
2022/07/29 05:28:51;;;;;;;12.32;10.63;;;;;;;19.97;46.35;100460.97;4909218;28;101237;-80
2022/07/29 05:31:16;;;;;;;12.43;11.30;;;;;;;19.87;46.61;100458.13;4898198;28;96704;-81
2022/07/29 05:33:42;;;;;;;12.15;10.95;;;;;;;19.73;46.76;100465.38;4898311;28;96887;-80
2022/07/29 05:36:07;;;;;;;11.60;10.50;;;;;;;19.64;47.02;100434.88;4894599;28;97536;-80
2022/07/29 05:38:34;;;;;;;12.88;11.48;;;;;;;20.04;46.75;100456.06;4904397;28;101882;-81
2022/07/29 05:40:59;;;;;;;13.80;11.25;;;;;;;20.34;46.08;100447.69;4911651;28;96944;-80
2022/07/29 05:43:26;;;;;;;14.27;10.95;;;;;;;20.70;45.21;100444.13;4893902;28;97470;-81
2022/07/29 05:45:52;;;;;;;11.68;10.70;;;;;;;20.78;44.95;100443.56;4892958;28;101569;-81
2022/07/29 05:48:17;;;;;;;12.32;11.05;;;;;;;20.74;45.17;100456.28;4914496;28;98470;-81
2022/07/29 05:50:43;;;;;;;12.68;11.30;;;;;;;20.62;45.31;100451.84;4894795;28;96824;-80
2022/07/29 05:53:13;;;;;;;11.63;10.70;;;;;;;20.93;44.57;100453.09;4895141;28;97057;-81
2022/07/29 05:55:39;;;;;;;12.10;11.00;;;;;;;22.07;42.33;100450.50;4894403;28;98698;-80
2022/07/29 05:58:04;;;;;;;13.90;11.15;;;;;;;22.04;42.35;100452.56;4896253;28;101216;-81
2022/07/29 06:00:30;;;;;;;12.02;10.93;;;;;;;21.48;43.67;100462.25;4902149;28;97553;-81
2022/07/29 06:02:56;;;;;;;11.77;10.70;;;;;;;21.40;43.91;100459.31;4873460;28;97466;-81
2022/07/29 06:05:22;;;;;;;11.98;10.98;;;;;;;21.62;43.17;100428.28;4861686;28;101844;-81
2022/07/29 06:07:47;;;;;;;14.15;10.63;;;;;;;22.70;41.55;100450.75;4877489;28;101082;-81
2022/07/29 06:10:13;;;;;;;12.45;10.95;;;;;;;24.36;38.90;100450.75;4896933;28;97388;-81
2022/07/29 06:12:39;;;;;;;11.90;10.90;;;;;;;25.42;37.07;100446.41;4888276;28;98234;-81
2022/07/29 06:15:05;;;;;;;12.20;11.15;;;;;;;25.75;35.67;100437.00;4894570;28;97855;-81
2022/07/29 06:17:30;;;;;;;13.48;11.35;;;;;;;26.32;35.16;100417.19;4897333;28;101105;-80
2022/07/29 06:19:56;;;;;;;11.88;10.77;;;;;;;26.99;34.12;100423.06;4912310;28;97283;-81
2022/07/29 06:22:21;;;;;;;11.77;10.75;;;;;;;26.06;35.06;100417.91;4900528;28;98198;-80
2022/07/29 06:24:47;;;;;;;12.57;11.52;;;;;;;25.87;35.80;100431.47;4908307;28;100052;-80
2022/07/29 06:27:12;;;;;;;12.13;11.32;;;;;;;26.74;34.36;100403.19;4880881;28;101307;-80
2022/07/29 06:29:38;;;;;;;13.32;11.35;;;;;;;27.59;33.39;100430.44;4912155;28;97103;-80
2022/07/29 06:32:04;;;;;;;15.10;13.80;;;;;;;27.47;33.49;100428.00;4889716;28;96911;-81
2022/07/29 06:34:29;;;;;;;12.32;11.20;;;;;;;27.22;33.67;100437.75;4875873;28;101119;-81
2022/07/29 06:36:55;;;;;;;12.32;11.00;;;;;;;26.16;35.14;100442.91;4897581;28;100828;-80
2022/07/29 06:39:20;;;;;;;12.05;10.90;;;;;;;25.41;36.33;100428.63;4882740;28;96981;-80
2022/07/29 06:41:48;;;;;;;12.98;10.52;;;;;;;25.42;36.38;100443.72;4903333;28;97176;-81
2022/07/29 06:44:14;;;;;;;11.82;10.85;;;;;;;26.16;35.61;100452.84;4879628;28;101529;-80
2022/07/29 06:46:39;;;;;;;11.95;10.98;;;;;;;27.32;34.03;100445.75;4903810;28;100960;-81
2022/07/29 06:49:05;;;;;;;12.07;11.02;;;;;;;27.70;33.25;100431.00;4898478;28;97039;-80
2022/07/29 06:51:30;;;;;;;11.73;10.80;;;;;;;27.45;33.72;100448.03;4896851;28;97175;-80
2022/07/29 06:53:57;;;;;;;11.68;10.68;;;;;;;27.16;34.15;100449.16;4879859;28;101326;-80
2022/07/29 06:56:23;;;;;;;11.57;10.55;;;;;;;26.33;35.14;100454.72;4881977;28;97526;-80
2022/07/29 06:58:48;;;;;;;11.02;10.25;;;;;;;25.88;36.17;100443.91;4884264;28;96649;-80
2022/07/29 07:01:14;;;;;;;11.57;10.48;;;;;;;25.36;36.73;100451.53;4889404;28;96894;-80
2022/07/29 07:03:39;;;;;;;12.48;11.25;;;;;;;24.99;37.54;100420.06;4912413;28;101449;-80
2022/07/29 07:06:04;;;;;;;11.43;10.43;;;;;;;25.00;37.82;100448.59;4895729;28;98753;-80
2022/07/29 07:08:30;;;;;;;13.68;12.60;;;;;;;24.85;37.90;100456.22;4911497;28;96902;-80
2022/07/29 07:10:56;;;;;;;14.98;13.55;;;;;;;25.15;37.53;100427.53;4913934;28;96964;-80
2022/07/29 07:13:22;;;;;;;15.60;14.55;;;;;;;25.87;36.70;100445.75;4896012;28;101321;-80
2022/07/29 07:15:48;;;;;;;11.25;10.40;;;;;;;27.04;34.51;100434.22;4901071;28;100245;-80
2022/07/29 07:18:15;;;;;;;12.15;11.15;;;;;;;28.28;32.35;100407.81;4896499;28;96965;-80
2022/07/29 07:20:41;;;;;;;11.13;10.13;;;;;;;28.20;32.30;100424.81;4872024;28;97349;-80
2022/07/29 07:23:06;;;;;;;11.70;11.00;;;;;;;28.06;32.66;100427.31;4911632;28;101150;-80
2022/07/29 07:25:32;;;;;;;11.40;10.35;;;;;;;27.61;33.26;100421.19;4894764;28;101276;-80
2022/07/29 07:27:57;;;;;;;11.63;10.73;;;;;;;27.35;33.44;100393.41;4909788;28;97408;-80
2022/07/29 07:30:23;;;;;;;11.63;10.73;;;;;;;26.78;34.35;100426.09;4910271;28;96854;-81
2022/07/29 07:32:48;;;;;;;10.70;9.90;;;;;;;26.13;35.69;100427.09;4911565;28;98139;-81
2022/07/29 07:35:14;;;;;;;11.68;10.68;;;;;;;25.91;36.09;100428.31;4891947;28;97282;-81
2022/07/29 07:37:42;;;;;;;11.60;10.55;;;;;;;25.88;36.51;100419.72;4901077;28;96847;-81
2022/07/29 07:40:13;;;;;;;11.38;10.43;;;;;;;25.42;36.96;100408.81;4881451;28;97020;-80
2022/07/29 07:42:39;;;;;;;11.27;10.20;;;;;;;25.35;37.76;100426.50;4888184;28;98260;-81
2022/07/29 07:45:06;;;;;;;11.35;10.65;;;;;;;25.37;37.56;100399.53;4875287;28;100934;-82
2022/07/29 07:47:32;;;;;;;10.75;9.95;;;;;;;26.08;36.65;100423.16;4897206;28;97055;-82
2022/07/29 07:49:57;;;;;;;10.68;9.55;;;;;;;26.35;36.54;100419.56;4894650;28;97633;-81
2022/07/29 07:52:23;;;;;;;11.20;10.30;;;;;;;26.09;37.20;100417.63;4897403;28;98377;-81
2022/07/29 07:54:49;;;;;;;11.10;10.40;;;;;;;25.80;36.89;100427.63;4884264;28;101077;-81
2022/07/29 07:57:15;;;;;;;10.90;9.90;;;;;;;25.13;38.25;100408.00;4886778;28;96859;-82
2022/07/29 07:59:40;;;;;;;10.60;9.73;;;;;;;25.03;38.29;100422.28;4895760;28;97521;-82
2022/07/29 08:02:07;;;;;;;12.85;10.00;;;;;;;24.63;38.87;100414.38;4890524;28;101234;-81
2022/07/29 08:04:32;;;;;;;11.23;10.52;;;;;;;24.69;39.34;100426.41;4897057;28;101908;-79
2022/07/29 08:06:58;;;;;;;11.07;9.77;;;;;;;24.80;39.01;100424.41;4896744;28;96926;-80
2022/07/29 08:09:25;;;;;;;11.25;10.30;;;;;;;25.05;38.81;100428.38;4896661;28;96977;-80
2022/07/29 08:11:51;;;;;;;11.20;10.10;;;;;;;25.15;38.45;100427.53;4894186;28;99859;-80
2022/07/29 08:14:17;;;;;;;13.95;10.30;;;;;;;25.36;37.84;100389.75;4912876;28;97483;-80
2022/07/29 08:16:42;;;;;;;10.82;10.07;;;;;;;25.66;37.68;100394.88;4896765;28;97341;-79
2022/07/29 08:19:08;;;;;;;11.27;10.38;;;;;;;26.17;37.06;100403.41;4913034;28;97306;-79
2022/07/29 08:21:34;;;;;;;11.13;10.30;;;;;;;26.32;36.62;100415.34;4878647;28;101653;-79
2022/07/29 08:26:44;;;;;;;11.52;10.50;;;;;;;26.21;37.10;100418.28;4910878;28;96885;-80
2022/07/29 08:29:10;;;;;;;11.05;10.25;;;;;;;26.51;36.66;100425.19;4899361;28;97081;-80
2022/07/29 08:31:36;;;;;;;11.02;9.98;;;;;;;26.86;36.52;100423.47;4893300;28;101181;-79
2022/07/29 08:34:03;;;;;;;11.75;10.75;;;;;;;27.09;36.32;100422.00;4896113;28;97559;-79
2022/07/29 08:36:28;;;;;;;11.32;10.20;;;;;;;26.94;35.82;100395.78;4914441;28;96789;-80
2022/07/29 08:38:55;;;;;;;10.77;9.88;;;;;;;26.78;36.30;100418.03;4913439;28;96949;-80
2022/07/29 08:41:21;;;;;;;12.15;11.07;;;;;;;26.45;37.05;100420.38;4896685;28;98035;-80
2022/07/29 08:43:48;;;;;;;10.95;10.00;;;;;;;26.24;37.34;100422.47;4912757;28;98852;-80
2022/07/29 08:46:14;;;;;;;11.45;10.27;;;;;;;26.41;37.29;100427.03;4895048;28;97453;-80
2022/07/29 08:48:40;;;;;;;12.23;10.98;;;;;;;26.68;37.01;100419.97;4898945;28;97031;-80
2022/07/29 08:51:07;;;;;;;10.98;10.23;;;;;;;26.97;36.38;100398.16;4897429;28;97324;-80
2022/07/29 08:53:33;;;;;;;12.05;9.85;;;;;;;27.31;36.13;100414.41;4897481;28;97682;-80
2022/07/29 08:55:59;;;;;;;10.55;9.85;;;;;;;27.48;35.88;100402.72;4909531;28;96793;-79
2022/07/29 08:58:25;;;;;;;10.55;9.70;;;;;;;27.63;35.74;100402.13;4915076;28;97035;-80
2022/07/29 09:00:53;;;;;;;11.50;10.35;;;;;;;28.42;34.41;100390.16;4885581;28;101285;-80
2022/07/29 09:03:20;;;;;;;11.32;10.52;;;;;;;29.64;32.88;100404.63;4896913;28;101581;-80
2022/07/29 09:05:46;;;;;;;12.77;10.73;;;;;;;30.31;32.15;100383.41;4911303;28;98167;-83
2022/07/29 09:08:13;;;;;;;12.13;10.88;;;;;;;30.56;31.51;100394.03;4914182;28;97686;-80
2022/07/29 09:10:39;;;;;;;11.35;10.50;;;;;;;30.21;31.64;100377.34;4909465;28;97585;-80
2022/07/29 09:13:04;;;;;;;10.40;9.57;;;;;;;29.80;32.35;100396.47;4898278;28;100955;-80
2022/07/29 09:15:30;;;;;;;10.90;10.02;;;;;;;29.42;32.85;100395.41;4896840;28;97085;-81
2022/07/29 09:17:58;;;;;;;10.98;10.07;;;;;;;29.46;32.64;100388.63;4914546;28;97432;-80
2022/07/29 09:20:25;;;;;;;10.93;10.13;;;;;;;29.26;32.88;100402.50;4899996;28;101246;-80
2022/07/29 09:22:53;;;;;;;11.18;10.48;;;;;;;29.14;33.34;100376.00;4899742;28;101076;-82
2022/07/29 09:25:38;;;;;;;10.70;10.00;;;;;;;28.96;33.62;100386.97;4915490;28;96983;-80
2022/07/29 09:28:11;;;;;;;11.40;10.45;;;;;;;28.28;34.30;100388.09;4889469;28;97028;-81
2022/07/29 09:30:52;;;;;;;10.85;9.88;;;;;;;27.83;35.21;100381.19;4908299;28;102202;-80
2022/07/29 09:33:18;;;;;;;16.73;9.75;;;;;;;27.49;36.06;100376.66;4897678;28;99055;-80
2022/07/29 09:35:43;;;;;;;11.35;10.27;;;;;;;27.25;36.66;100390.81;4887108;28;96914;-80
2022/07/29 09:38:13;;;;;;;13.30;11.52;;;;;;;27.00;37.20;100382.53;4914526;28;97338;-83
2022/07/29 09:40:39;;;;;;;11.38;10.40;;;;;;;26.83;37.42;100389.63;4893961;28;97464;-80
2022/07/29 09:43:12;;;;;;;11.63;10.73;;;;;;;26.75;37.75;100376.09;4881546;28;101167;-81
2022/07/29 09:45:38;;;;;;;10.95;10.25;;;;;;;26.71;38.03;100387.34;4898975;28;97003;-81
2022/07/29 09:48:14;;;;;;;11.10;9.90;;;;;;;26.68;38.27;100382.28;4923429;28;96994;-82
2022/07/29 09:50:41;;;;;;;11.10;10.02;;;;;;;26.54;38.21;100386.34;4879648;28;101268;-81
2022/07/29 09:53:10;;;;;;;11.25;10.30;;;;;;;26.38;38.25;100378.91;4893076;28;101696;-81
2022/07/29 09:55:50;;;;;;;11.77;10.50;;;;;;;26.38;38.80;100370.84;4898958;28;96832;-80
2022/07/29 09:58:20;;;;;;;12.60;11.43;;;;;;;26.31;38.74;100378.69;4891637;28;97368;-84
2022/07/29 10:00:47;;;;;;;11.43;10.52;;;;;;;26.30;38.90;100371.63;4894305;28;98480;-84
2022/07/29 10:03:13;;;;;;;11.43;10.30;;;;;;;26.33;38.82;100371.31;4894749;28;101675;-84
2022/07/29 10:05:40;;;;;;;10.68;9.77;;;;;;;26.45;38.49;100377.31;4894214;28;96661;-84
2022/07/29 10:08:07;;;;;;;13.63;10.25;;;;;;;26.47;38.59;100363.69;4908145;28;97063;-85
2022/07/29 10:10:35;;;;;;;11.00;10.10;;;;;;;26.55;38.31;100369.19;4896076;28;101170;-81
2022/07/29 10:13:06;;;;;;;11.38;10.48;;;;;;;26.52;38.40;100367.66;4894299;28;97439;-84
2022/07/29 10:15:37;;;;;;;11.40;10.50;;;;;;;26.59;38.66;100367.91;4894818;28;96768;-84
2022/07/29 10:18:02;;;;;;;11.40;10.38;;;;;;;26.70;38.55;100364.09;4894674;28;97013;-85
2022/07/29 10:20:28;;;;;;;10.93;10.02;;;;;;;26.55;38.68;100350.34;4909347;28;97464;-84
2022/07/29 10:22:54;;;;;;;11.60;10.35;;;;;;;26.64;38.56;100366.41;4893892;28;101492;-84
2022/07/29 10:25:20;;;;;;;11.68;10.75;;;;;;;26.64;38.66;100355.63;4879827;28;96831;-84
2022/07/29 10:27:47;;;;;;;11.27;10.15;;;;;;;26.67;38.65;100359.88;4892409;28;97011;-84
2022/07/29 10:30:14;;;;;;;10.80;9.90;;;;;;;26.67;38.32;100364.41;4913336;28;98076;-84
2022/07/29 10:32:59;;;;;;;12.43;11.35;;;;;;;26.68;38.33;100358.88;4912402;28;97397;-85
2022/07/29 10:35:58;;;;;;;11.13;10.15;;;;;;;26.71;38.45;100355.03;4896316;28;96960;-84
2022/07/29 10:38:42;;;;;;;11.85;10.77;;;;;;;26.77;38.14;100357.94;4875267;28;96885;-84
2022/07/29 10:44:02;;;;;;;11.02;10.13;;;;;;;27.02;37.71;100350.91;4906884;28;100195;-84
2022/07/29 10:46:28;;;;;;;11.75;10.20;;;;;;;27.01;37.72;100353.75;4897096;28;97281;-83
2022/07/29 10:49:16;;;;;;;12.77;10.38;;;;;;;27.04;37.60;100350.72;4893994;28;96806;-85
2022/07/29 10:51:59;;;;;;;10.85;10.10;;;;;;;26.82;38.05;100335.91;4911337;28;98143;-83
2022/07/29 10:54:37;;;;;;;10.57;9.77;;;;;;;26.99;37.89;100342.28;4909958;28;97952;-83
2022/07/29 10:57:27;;;;;;;10.60;9.73;;;;;;;27.14;37.88;100342.53;4906788;28;98083;-85
2022/07/29 11:00:05;;;;;;;11.18;10.30;;;;;;;27.10;37.17;100326.69;4893584;28;97852;-85
2022/07/29 11:02:36;;;;;;;10.07;9.30;;;;;;;27.24;37.75;100341.47;4898857;28;101284;-84
2022/07/29 11:05:03;;;;;;;11.73;10.60;;;;;;;27.16;37.85;100336.03;4913226;28;99776;-85
2022/07/29 11:07:29;;;;;;;11.18;10.32;;;;;;;27.15;38.13;100328.06;4913485;28;97328;-82
2022/07/29 11:10:15;;;;;;;11.10;10.05;;;;;;;27.13;38.14;100340.84;4899624;28;96884;-84
2022/07/29 11:12:40;;;;;;;11.35;10.32;;;;;;;27.10;37.82;100342.00;4908680;28;97426;-82
2022/07/29 11:15:18;;;;;;;11.32;10.30;;;;;;;27.09;37.94;100351.09;4913209;28;97875;-83
2022/07/29 11:17:53;;;;;;;12.30;10.10;;;;;;;27.07;37.92;100336.94;4914766;28;97110;-84